Time;durP1;ratioP1;P1;durP2;ratioP2;P2;SDS_P1;SDS_P2;PMS_P1;PMS_P2;Temp;Humidity;BMP_temperature;BMP_pressure;BME280_temperature;BME280_humidity;BME280_pressure;Samples;Min_cycle;Max_cycle;Signal;HPM_P1;HPM_P2
2022/07/14 00:01:50;;;;;;;11.50;3.00;;;;;;;16.03;77.10;101261.93;107919;1277;61327;-83
2022/07/14 00:04:17;;;;;;;12.00;2.80;;;;;;;15.98;76.94;101259.15;108106;1276;75876;-83
2022/07/14 00:06:44;;;;;;;17.80;2.90;;;;;;;15.95;77.23;101261.52;108077;1276;71160;-83
2022/07/14 00:09:11;;;;;;;14.90;3.10;;;;;;;15.90;77.56;101260.63;108063;1276;74896;-83
2022/07/14 00:11:38;;;;;;;14.80;3.10;;;;;;;15.86;77.79;101265.09;107660;1277;63520;-83
2022/07/14 00:14:05;;;;;;;13.60;3.30;;;;;;;15.82;78.06;101266.17;107894;1276;60570;-83
2022/07/14 00:16:32;;;;;;;14.20;3.60;;;;;;;15.78;78.34;101263.99;108067;1277;76298;-83
2022/07/14 00:19:00;;;;;;;17.30;3.10;;;;;;;15.74;78.72;101268.96;108106;1276;70343;-83
2022/07/14 00:21:27;;;;;;;14.60;3.20;;;;;;;15.71;78.65;101270.19;108030;1276;73982;-83
2022/07/14 00:23:54;;;;;;;12.90;3.20;;;;;;;15.68;78.89;101268.40;107945;1276;63578;-83
2022/07/14 00:26:21;;;;;;;12.20;2.50;;;;;;;15.66;79.34;101272.08;108078;1277;61631;-83
2022/07/14 00:28:48;;;;;;;11.70;2.90;;;;;;;15.63;79.33;101277.45;108118;1276;75523;-83
2022/07/14 00:31:16;;;;;;;11.40;2.70;;;;;;;15.62;79.14;101277.22;107744;1277;72075;-83
2022/07/14 00:33:43;;;;;;;12.60;3.20;;;;;;;15.61;79.35;101279.44;107808;1277;74133;-83
2022/07/14 00:36:10;;;;;;;12.40;2.90;;;;;;;15.59;79.28;101273.84;107737;1277;61077;-83
2022/07/14 00:38:37;;;;;;;18.80;3.50;;;;;;;15.57;79.62;101271.69;108106;1276;60599;-83
2022/07/14 00:41:05;;;;;;;13.70;3.30;;;;;;;15.54;79.85;101267.20;107909;1277;74993;-83
2022/07/14 00:43:36;;;;;;;12.30;2.90;;;;;;;15.51;80.08;101268.30;108086;1276;71620;-83
2022/07/14 00:46:04;;;;;;;11.00;2.80;;;;;;;15.47;79.90;101264.57;107914;1276;72983;-83
2022/07/14 00:48:35;;;;;;;14.90;2.60;;;;;;;15.46;80.04;101263.04;108115;1276;62249;-83
2022/07/14 00:51:01;;;;;;;14.20;2.90;;;;;;;15.43;80.24;101268.27;108088;1276;60268;-83
2022/07/14 00:53:30;;;;;;;13.40;3.00;;;;;;;15.41;80.32;101268.27;107959;1276;74901;-83
2022/07/14 00:55:57;;;;;;;14.90;2.80;;;;;;;15.37;80.52;101266.94;107843;1277;71178;-83
2022/07/14 00:58:25;;;;;;;12.60;2.70;;;;;;;15.35;80.77;101265.65;107977;1277;74051;-83
2022/07/14 01:00:52;;;;;;;13.80;2.80;;;;;;;15.33;80.67;101262.55;107812;1276;61315;-83
2022/07/14 01:03:19;;;;;;;12.80;2.90;;;;;;;15.33;80.89;101265.06;108147;1276;59127;-83
2022/07/14 01:05:47;;;;;;;15.90;2.80;;;;;;;15.33;80.82;101271.10;108030;1277;74983;-83
2022/07/14 01:08:14;;;;;;;11.60;2.80;;;;;;;15.34;81.16;101271.11;108179;1275;71470;-83
2022/07/14 01:10:42;;;;;;;14.90;3.50;;;;;;;15.35;81.47;101275.12;108101;1276;73821;-83
2022/07/14 01:13:09;;;;;;;12.80;2.60;;;;;;;15.35;81.64;101275.04;108290;1276;63396;-83
2022/07/14 01:15:36;;;;;;;16.60;3.30;;;;;;;15.37;81.63;101273.58;108499;1276;61551;-83
2022/07/14 01:18:03;;;;;;;16.00;3.40;;;;;;;15.38;81.36;101272.89;108517;1277;74969;-83
2022/07/14 01:20:31;;;;;;;14.30;3.00;;;;;;;15.41;81.47;101271.14;108046;1276;584096;-84
2022/07/14 01:22:58;;;;;;;14.10;3.10;;;;;;;15.41;81.36;101267.57;108202;1277;74479;-84
2022/07/14 01:25:25;;;;;;;14.40;2.90;;;;;;;15.42;81.32;101268.72;107954;1277;61794;-83
2022/07/14 01:27:54;;;;;;;14.10;2.60;;;;;;;15.40;81.10;101269.61;108142;1276;59730;-83
2022/07/14 01:30:22;;;;;;;15.50;3.00;;;;;;;15.37;81.22;101264.11;108084;1277;75118;-83
2022/07/14 01:32:49;;;;;;;14.30;3.20;;;;;;;15.35;81.25;101266.69;108142;1276;71512;-83
2022/07/14 01:35:16;;;;;;;13.10;2.90;;;;;;;15.32;81.29;101262.99;108078;1276;74428;-83
2022/07/14 01:37:44;;;;;;;11.10;2.60;;;;;;;15.26;81.54;101255.38;107976;1277;61972;-83
2022/07/14 01:40:14;;;;;;;11.30;3.00;;;;;;;15.20;81.49;101253.39;108071;1276;61591;-83
2022/07/14 01:42:42;;;;;;;13.60;3.10;;;;;;;15.17;81.63;101255.66;107955;1277;76778;-84
2022/07/14 01:45:10;;;;;;;14.10;3.10;;;;;;;15.14;81.70;101255.23;107970;1277;73326;-83
2022/07/14 01:47:37;;;;;;;14.90;3.70;;;;;;;15.11;81.72;101261.11;108072;1276;75154;-83
2022/07/14 01:50:04;;;;;;;14.00;3.00;;;;;;;15.07;81.83;101260.22;108005;1276;61309;-83
2022/07/14 01:52:31;;;;;;;13.80;3.10;;;;;;;15.02;81.94;101260.98;108112;1276;60631;-83
2022/07/14 01:54:59;;;;;;;12.20;3.20;;;;;;;14.99;81.87;101260.28;108102;1276;75429;-83
2022/07/14 01:57:26;;;;;;;19.90;3.10;;;;;;;14.96;82.14;101265.34;107939;1277;71950;-83
2022/07/14 01:59:53;;;;;;;11.80;2.80;;;;;;;14.93;82.15;101269.15;107965;1277;73021;-83
2022/07/14 02:02:20;;;;;;;11.20;2.90;;;;;;;14.88;82.24;101273.83;107788;1277;62226;-83
2022/07/14 02:04:47;;;;;;;13.10;2.60;;;;;;;14.83;82.38;101276.32;107980;1275;61652;-83
2022/07/14 02:07:15;;;;;;;15.70;2.90;;;;;;;14.78;82.51;101279.64;108055;1276;75860;-84
2022/07/14 02:12:27;;;;;;;14.30;3.40;;;;;;;14.69;82.63;101282.38;108073;1276;71903;-83
2022/07/14 02:14:54;;;;;;;14.90;3.20;;;;;;;14.64;82.52;101279.89;108094;1276;63442;-83
2022/07/14 02:17:21;;;;;;;14.30;3.10;;;;;;;14.61;82.68;101278.70;107934;1275;61576;-83
2022/07/14 02:19:48;;;;;;;13.90;3.00;;;;;;;14.58;82.70;101280.23;108153;1276;75973;-83
2022/07/14 02:22:15;;;;;;;13.20;2.90;;;;;;;14.56;82.78;101284.14;107754;1277;72448;-83
2022/07/14 02:24:42;;;;;;;13.30;3.30;;;;;;;14.52;82.70;101281.91;107963;1276;72943;-83
2022/07/14 02:27:09;;;;;;;17.70;2.90;;;;;;;14.48;82.87;101283.08;108090;1276;62107;-83
2022/07/14 02:29:37;;;;;;;13.90;3.00;;;;;;;14.45;83.16;101282.42;107966;1276;60619;-83
2022/07/14 02:32:06;;;;;;;12.10;3.20;;;;;;;14.41;83.16;101284.05;107774;1276;74939;-83
2022/07/14 02:34:33;;;;;;;13.50;3.30;;;;;;;14.38;83.19;101282.00;107768;1277;71669;-83
2022/07/14 02:37:00;;;;;;;16.20;3.30;;;;;;;14.36;83.34;101287.81;107910;1277;72756;-83
2022/07/14 02:39:28;;;;;;;14.10;3.30;;;;;;;14.33;83.67;101289.57;107969;1276;63384;-83
2022/07/14 02:41:56;;;;;;;14.10;2.90;;;;;;;14.31;83.67;101286.98;108060;1276;60955;-83
2022/07/14 02:44:23;;;;;;;15.00;3.00;;;;;;;14.26;84.24;101287.45;108116;1276;74226;-83
2022/07/14 02:46:50;;;;;;;17.00;3.20;;;;;;;14.22;84.32;101286.55;107815;1277;72269;-83
2022/07/14 02:49:18;;;;;;;13.00;2.80;;;;;;;14.20;84.38;101283.21;107818;1277;72628;-83
2022/07/14 02:51:45;;;;;;;15.20;3.00;;;;;;;14.19;84.81;101286.27;107862;1276;62437;-83
2022/07/14 02:54:12;;;;;;;16.30;3.90;;;;;;;14.17;84.82;101286.81;108141;1276;59567;-83
2022/07/14 02:56:39;;;;;;;15.20;3.40;;;;;;;14.15;84.88;101287.23;107731;1277;74889;-83
2022/07/14 02:59:07;;;;;;;14.70;3.60;;;;;;;14.13;85.37;101286.64;108110;1276;70160;-83
2022/07/14 03:01:34;;;;;;;15.80;3.40;;;;;;;14.10;85.51;101287.66;107930;1276;72931;-82
2022/07/14 03:04:02;;;;;;;15.20;3.40;;;;;;;14.07;85.67;101285.52;107873;1277;62275;-83
2022/07/14 03:06:29;;;;;;;15.40;3.20;;;;;;;14.06;85.73;101287.44;107893;1277;60332;-83
2022/07/14 03:08:56;;;;;;;12.00;2.90;;;;;;;14.05;85.70;101284.15;107617;1277;75811;-83
2022/07/14 03:11:23;;;;;;;17.30;3.20;;;;;;;14.06;85.96;101284.40;108067;1276;71294;-83
2022/07/14 03:13:51;;;;;;;12.80;3.10;;;;;;;14.07;85.81;101276.27;107816;1276;75598;-83
2022/07/14 03:16:18;;;;;;;13.70;2.90;;;;;;;14.10;85.87;101276.66;107915;1277;64408;-83
2022/07/14 03:18:46;;;;;;;12.10;3.30;;;;;;;14.10;85.99;101279.45;107934;1277;61706;-83
2022/07/14 03:21:14;;;;;;;15.80;3.00;;;;;;;14.11;86.02;101285.62;107820;1277;74971;-83
2022/07/14 03:23:41;;;;;;;17.30;3.40;;;;;;;14.10;85.86;101288.20;108115;1276;72491;-83
2022/07/14 03:26:11;;;;;;;13.90;2.90;;;;;;;14.08;86.28;101285.59;107828;1277;74194;-83
2022/07/14 03:28:38;;;;;;;17.30;2.90;;;;;;;14.06;86.20;101280.42;108082;1276;62478;-83
2022/07/14 03:31:11;;;;;;;15.40;3.30;;;;;;;14.05;86.50;101277.05;108099;1275;62578;-83
2022/07/14 03:33:39;;;;;;;16.40;3.60;;;;;;;14.05;86.40;101275.77;108011;1277;75074;-83
2022/07/14 03:36:12;;;;;;;14.60;3.40;;;;;;;14.06;86.14;101270.45;108147;1276;71061;-83
2022/07/14 03:38:40;;;;;;;14.50;3.40;;;;;;;14.07;86.21;101271.42;108104;1276;73179;-83
2022/07/14 03:41:10;;;;;;;11.80;3.00;;;;;;;14.07;86.34;101270.88;107954;1277;62345;-83
2022/07/14 03:43:38;;;;;;;13.90;3.60;;;;;;;14.07;86.42;101276.45;107966;1277;60548;-83
2022/07/14 03:46:12;;;;;;;14.20;3.00;;;;;;;14.08;86.37;101272.54;108118;1276;76559;-83
2022/07/14 03:48:39;;;;;;;12.20;3.50;;;;;;;14.10;86.31;101270.38;107989;1276;71433;-83
2022/07/14 03:51:14;;;;;;;14.00;3.00;;;;;;;14.14;86.27;101270.15;108008;1276;74132;-83
2022/07/14 03:53:41;;;;;;;15.70;3.00;;;;;;;14.18;86.23;101274.75;108235;1275;62345;-82
2022/07/14 03:56:12;;;;;;;14.90;2.90;;;;;;;14.23;86.20;101281.84;108051;1277;59961;-82
2022/07/14 03:58:39;;;;;;;15.60;3.10;;;;;;;14.27;86.09;101284.50;108299;1276;76631;-83
2022/07/14 04:01:13;;;;;;;14.90;3.20;;;;;;;14.32;85.92;101287.21;108324;1276;70350;-83
2022/07/14 04:03:41;;;;;;;12.00;3.00;;;;;;;14.36;85.75;101282.64;108035;1277;74193;-82
2022/07/14 04:06:12;;;;;;;14.20;3.10;;;;;;;14.40;85.70;101284.55;108144;1276;62439;-82
2022/07/14 04:08:40;;;;;;;13.10;2.70;;;;;;;14.47;85.39;101284.30;108192;1277;62750;-82
2022/07/14 04:11:17;;;;;;;12.60;3.00;;;;;;;14.56;85.40;101285.37;108174;1277;75023;-82
2022/07/14 04:13:45;;;;;;;14.90;2.90;;;;;;;14.62;84.89;101286.70;108125;1276;70433;-82
2022/07/14 04:16:12;;;;;;;10.60;3.60;;;;;;;14.69;84.67;101289.24;108335;1276;74188;-82
2022/07/14 04:18:39;;;;;;;13.10;3.60;;;;;;;14.74;84.25;101285.44;108101;1276;62440;-82
2022/07/14 04:21:10;;;;;;;12.20;3.10;;;;;;;14.81;83.89;101290.98;108166;1277;61800;-82
2022/07/14 04:23:38;;;;;;;11.30;2.70;;;;;;;14.85;83.58;101290.16;108225;1276;74310;-82
2022/07/14 04:26:11;;;;;;;12.50;3.00;;;;;;;14.90;83.41;101291.20;108319;1276;71605;-83
2022/07/14 04:28:38;;;;;;;16.60;3.00;;;;;;;14.95;83.23;101285.91;108038;1277;74055;-82
2022/07/14 04:31:12;;;;;;;13.10;3.10;;;;;;;15.00;83.05;101286.54;108040;1276;62623;-82
2022/07/14 04:33:39;;;;;;;17.60;3.30;;;;;;;15.06;82.81;101289.11;107947;1277;61442;-82
2022/07/14 04:36:09;;;;;;;18.40;3.10;;;;;;;15.12;82.72;101287.69;107965;1276;76252;-83
2022/07/14 04:38:35;;;;;;;22.40;3.60;;;;;;;15.20;82.54;101285.13;108355;1276;73159;-82
2022/07/14 04:41:03;;;;;;;16.80;3.40;;;;;;;15.27;82.30;101290.89;108167;1276;74393;-82
2022/07/14 04:43:30;;;;;;;16.50;3.10;;;;;;;15.32;81.92;101294.46;108183;1276;61953;-82
2022/07/14 04:45:57;;;;;;;17.00;3.10;;;;;;;15.35;81.57;101298.02;107968;1277;59640;-81
2022/07/14 04:48:24;;;;;;;15.40;2.80;;;;;;;15.39;81.28;101301.14;108070;1276;73640;-81
2022/07/14 04:53:38;;;;;;;15.40;3.60;;;;;;;15.48;80.93;101300.20;108192;1276;75793;-81
2022/07/14 04:56:11;;;;;;;23.20;4.40;;;;;;;15.51;80.32;101298.41;107870;1277;62382;-82
2022/07/14 04:58:38;;;;;;;18.40;3.80;;;;;;;15.53;80.11;101301.30;107909;1276;60530;-82
2022/07/14 05:01:12;;;;;;;19.90;4.10;;;;;;;15.56;79.88;101298.86;107970;1276;75654;-82
2022/07/14 05:03:39;;;;;;;26.40;5.50;;;;;;;15.61;79.61;101295.73;107935;1277;71033;-84
2022/07/14 05:06:12;;;;;;;25.40;4.90;;;;;;;15.68;79.85;101289.33;107854;1277;73783;-84
2022/07/14 05:08:39;;;;;;;21.90;5.30;;;;;;;15.79;79.55;101293.14;108024;1277;61810;-84
2022/07/14 05:11:47;;;;;;;25.20;4.90;;;;;;;15.86;79.31;101292.80;107971;1277;60644;-87
2022/07/14 05:14:32;;;;;;;26.80;4.90;;;;;;;15.94;78.19;101278.27;108180;1277;75831;-86
2022/07/14 05:17:04;;;;;;;26.30;4.70;;;;;;;15.99;77.78;101276.70;108346;1276;72432;-85
2022/07/14 05:19:41;;;;;;;23.20;4.40;;;;;;;16.05;77.22;101281.80;108479;1276;72968;-86
2022/07/14 05:22:08;;;;;;;38.80;8.10;;;;;;;16.02;76.24;101278.73;108439;1277;62459;-85
2022/07/14 05:24:35;;;;;;;20.20;5.10;;;;;;;16.01;76.26;101277.17;108402;1277;60613;-85
2022/07/14 05:27:02;;;;;;;19.90;3.90;;;;;;;16.04;76.26;101277.43;108227;1274;75164;-85
2022/07/14 05:29:29;;;;;;;14.70;2.90;;;;;;;16.13;76.44;101279.83;108111;1277;72021;-84
2022/07/14 05:32:35;;;;;;;14.10;2.50;;;;;;;16.20;75.60;101283.65;108242;1276;74686;-85
2022/07/14 05:35:03;;;;;;;10.50;2.10;;;;;;;16.30;75.70;101285.73;107868;1278;61924;-84
2022/07/14 05:37:30;;;;;;;9.70;2.00;;;;;;;16.37;74.97;101288.69;108024;1277;60623;-84
2022/07/14 05:39:57;;;;;;;12.00;2.60;;;;;;;16.44;74.47;101287.69;107922;1277;76539;-84
2022/07/14 05:42:24;;;;;;;10.10;1.90;;;;;;;16.52;73.90;101283.27;108145;1276;71445;-84
2022/07/14 05:44:51;;;;;;;9.30;2.10;;;;;;;16.52;72.93;101279.45;107953;1276;73322;-84
2022/07/14 05:47:18;;;;;;;8.00;2.20;;;;;;;16.58;73.18;101284.08;108177;1276;62860;-84
2022/07/14 05:49:45;;;;;;;10.30;2.50;;;;;;;16.62;72.72;101286.77;108075;1277;61316;-84
2022/07/14 05:52:34;;;;;;;10.70;2.10;;;;;;;16.66;72.37;101289.05;108018;1276;73614;-86
2022/07/14 05:56:11;;;;;;;10.30;2.10;;;;;;;16.75;72.05;101289.05;107061;1287;71708;-84
2022/07/14 05:58:38;;;;;;;8.70;1.80;;;;;;;16.83;71.55;101288.08;106876;1287;73279;-82
2022/07/14 06:01:12;;;;;;;9.90;1.70;;;;;;;16.93;71.30;101283.77;106932;1286;61981;-84
2022/07/14 06:03:39;;;;;;;8.40;1.80;;;;;;;17.04;71.20;101276.00;106916;1287;61854;-85
2022/07/14 06:06:09;;;;;;;8.10;2.10;;;;;;;17.18;70.54;101268.99;106761;1287;75463;-83
2022/07/14 06:08:36;;;;;;;11.10;2.50;;;;;;;17.33;70.21;101265.60;106828;1287;71579;-85
2022/07/14 06:11:04;;;;;;;7.40;1.80;;;;;;;17.45;69.21;101264.56;107056;1287;73002;-85
2022/07/14 06:13:32;;;;;;;11.20;2.60;;;;;;;17.51;68.21;101259.03;107328;1282;60958;-86
2022/07/14 06:15:59;;;;;;;24.20;13.60;;;;;;;17.60;67.50;101257.42;107732;1280;61587;-85
2022/07/14 06:18:26;;;;;;;20.40;10.60;;;;;;;17.67;67.14;101254.31;107649;1281;74917;-85
2022/07/14 06:20:57;;;;;;;12.40;3.10;;;;;;;17.69;66.10;101254.52;107502;1281;71563;-85
2022/07/14 06:23:24;;;;;;;7.30;1.60;;;;;;;17.79;65.87;101245.86;107475;1281;75140;-84
2022/07/14 06:25:51;;;;;;;7.80;1.80;;;;;;;17.87;64.64;101249.19;107893;1276;60927;-85
2022/07/14 06:28:18;;;;;;;6.80;1.50;;;;;;;17.83;63.74;101249.23;108103;1277;61840;-85
2022/07/14 06:30:45;;;;;;;8.80;1.80;;;;;;;17.76;63.83;101252.81;108110;1277;74942;-85
2022/07/14 06:33:12;;;;;;;5.80;1.60;;;;;;;17.74;63.73;101249.52;108093;1277;72613;-85
2022/07/14 06:35:40;;;;;;;10.70;4.60;;;;;;;17.84;63.98;101244.48;108025;1276;73004;-84
2022/07/14 06:38:27;;;;;;;11.20;3.20;;;;;;;18.03;63.92;101236.48;108176;1276;64061;-84
2022/07/14 06:40:54;;;;;;;6.50;1.60;;;;;;;18.17;62.91;101232.39;108151;1277;61192;-84
2022/07/14 06:43:22;;;;;;;8.10;1.90;;;;;;;18.22;61.98;101231.05;108169;1276;77520;-85
2022/07/14 06:45:50;;;;;;;9.40;2.80;;;;;;;18.28;61.81;101233.54;108112;1277;70597;-85
2022/07/14 06:48:17;;;;;;;9.20;1.70;;;;;;;18.29;60.91;101238.58;108163;1277;72703;-84
2022/07/14 06:50:45;;;;;;;11.20;4.70;;;;;;;18.32;61.41;101236.13;108246;1276;63031;-85
2022/07/14 06:53:12;;;;;;;7.40;1.40;;;;;;;18.40;60.80;101236.43;108365;1277;60414;-84
2022/07/14 06:55:39;;;;;;;8.50;1.80;;;;;;;18.44;60.61;101236.48;107993;1276;74149;-84
2022/07/14 06:58:05;;;;;;;11.70;3.80;;;;;;;18.57;60.81;101235.11;108322;1277;72419;-84
2022/07/14 07:00:32;;;;;;;9.20;3.00;;;;;;;18.74;60.69;101239.40;108272;1276;71832;-83
2022/07/14 07:02:59;;;;;;;7.80;2.00;;;;;;;18.85;59.50;101238.61;108338;1276;61941;-85
2022/07/14 07:08:13;;;;;;;7.80;1.40;;;;;;;18.91;58.58;101239.48;108273;1276;74634;-84
2022/07/14 07:10:42;;;;;;;7.20;1.50;;;;;;;18.86;58.08;101241.54;108146;1277;71534;-84
2022/07/14 07:13:09;;;;;;;8.70;1.90;;;;;;;18.86;58.82;101235.05;108332;1277;74222;-84
2022/07/14 07:15:39;;;;;;;6.60;1.30;;;;;;;18.95;57.62;101233.67;108301;1277;60638;-84
2022/07/14 07:18:07;;;;;;;8.40;1.70;;;;;;;19.08;57.64;101230.81;108267;1277;61763;-84
2022/07/14 07:20:35;;;;;;;8.90;1.50;;;;;;;19.20;57.58;101232.00;108158;1276;76136;-85
2022/07/14 07:23:03;;;;;;;7.60;1.50;;;;;;;19.16;56.91;101235.42;108156;1277;73480;-85
2022/07/14 07:25:30;;;;;;;8.20;1.40;;;;;;;19.20;56.90;101228.98;108364;1276;73308;-84
2022/07/14 07:27:59;;;;;;;8.80;1.40;;;;;;;19.34;56.88;101231.92;108172;1277;60444;-84
2022/07/14 07:30:26;;;;;;;8.50;1.60;;;;;;;19.51;56.26;101229.91;108264;1274;63974;-85
2022/07/14 07:32:52;;;;;;;7.60;1.60;;;;;;;19.63;55.80;101225.75;108199;1277;76143;-84
2022/07/14 07:35:19;;;;;;;9.80;1.70;;;;;;;19.64;55.62;101222.25;108124;1276;70967;-83
2022/07/14 07:37:47;;;;;;;7.30;1.30;;;;;;;19.70;55.79;101216.84;108096;1277;72890;-83
2022/07/14 07:40:15;;;;;;;7.00;1.20;;;;;;;19.87;55.53;101213.92;108292;1276;60552;-84
2022/07/14 07:42:41;;;;;;;7.00;1.40;;;;;;;20.04;54.75;101207.36;108078;1276;61343;-83
2022/07/14 07:45:09;;;;;;;10.40;1.30;;;;;;;20.11;53.79;101204.83;108065;1276;75568;-83
2022/07/14 07:47:36;;;;;;;8.20;1.60;;;;;;;20.13;53.10;101208.20;108254;1277;72434;-82
2022/07/14 07:50:03;;;;;;;5.90;1.20;;;;;;;20.17;53.75;101208.06;108145;1277;72731;-84
2022/07/14 07:52:31;;;;;;;7.00;1.50;;;;;;;20.25;52.59;101213.98;108199;1277;59569;-83
2022/07/14 07:54:57;;;;;;;7.20;1.40;;;;;;;20.24;52.14;101210.84;107982;1277;61921;-84
2022/07/14 07:57:37;;;;;;;5.50;1.00;;;;;;;20.11;51.64;101211.02;108323;1276;77556;-85
2022/07/14 08:00:06;;;;;;;5.70;1.00;;;;;;;19.99;51.61;101210.65;108046;1276;69182;-86
2022/07/14 08:02:33;;;;;;;7.90;1.80;;;;;;;19.78;52.47;101212.86;108189;1277;73982;-84
2022/07/14 08:05:00;;;;;;;7.60;1.60;;;;;;;19.63;52.58;101213.61;108374;1276;61521;-84
2022/07/14 08:07:27;;;;;;;5.90;1.30;;;;;;;19.63;52.91;101205.88;108192;1277;61092;-85
2022/07/14 08:10:00;;;;;;;6.80;1.50;;;;;;;19.72;52.53;101204.07;108178;1276;75036;-83
2022/07/14 08:12:57;;;;;;;6.40;1.30;;;;;;;19.79;52.81;101202.77;108222;1277;70698;-86
2022/07/14 08:18:56;;;;;;;8.20;1.40;;;;;;;19.59;52.34;101197.21;108296;1276;60824;-83
2022/07/14 08:21:24;;;;;;;7.70;1.20;;;;;;;19.52;52.51;101198.59;108310;1276;59210;-83
2022/07/14 08:23:50;;;;;;;6.40;1.30;;;;;;;19.66;53.07;101194.54;107871;1276;76317;-83
2022/07/14 08:26:17;;;;;;;4.90;1.10;;;;;;;19.86;51.91;101194.19;108220;1276;71540;-83
2022/07/14 08:28:44;;;;;;;7.10;1.40;;;;;;;20.01;51.60;101190.02;108288;1276;72967;-84
2022/07/14 08:31:11;;;;;;;5.70;0.90;;;;;;;20.16;50.58;101187.95;108278;1276;61745;-83
2022/07/14 08:33:39;;;;;;;3.20;1.00;;;;;;;20.34;49.95;101177.02;108067;1277;62062;-84
2022/07/14 08:36:13;;;;;;;4.00;0.90;;;;;;;20.47;49.47;101176.27;108096;1277;74941;-84
2022/07/14 08:39:05;;;;;;;;;;;;;;;;;;;;;
2022/07/14 08:42:14;;;;;;;4.30;1.10;;;;;;;20.55;48.89;101160.11;108149;1276;72692;-83
2022/07/14 08:45:16;;;;;;;5.30;0.90;;;;;;;20.68;48.74;101153.18;107558;1275;60879;-85
2022/07/14 08:48:25;;;;;;;6.30;1.40;;;;;;;20.76;48.10;101147.58;108077;1276;59452;-84
2022/07/14 08:55:06;;;;;;;4.70;0.90;;;;;;;21.01;48.41;101138.58;108293;1277;72624;-83
2022/07/14 08:58:27;;;;;;;4.70;1.00;;;;;;;21.15;47.41;101138.41;108020;1277;72568;-84
2022/07/14 09:01:46;;;;;;;5.00;1.00;;;;;;;21.27;46.97;101140.17;108174;1277;63287;-84
2022/07/14 09:04:46;;;;;;;;;;;;;;;;;;;;;
2022/07/14 09:08:06;;;;;;;;;;;;;;;;;;;;;
2022/07/14 09:19:04;;;;;;;4.00;1.20;;;;;;;21.64;44.43;101137.95;107314;1283;60631;-83
2022/07/14 09:22:36;;;;;;;;;;;;;;;;;;;;;
2022/07/14 09:29:34;;;;;;;;;;;;;;;;;;;;;
2022/07/14 09:33:03;;;;;;;9.30;1.60;;;;;;;22.22;44.45;101131.05;107504;1282;71071;-84
2022/07/14 09:36:18;;;;;;;6.30;1.10;;;;;;;22.34;43.77;101132.37;106422;1291;61050;-86
2022/07/14 09:39:44;;;;;;;;;;;;;;;;;;;;;
2022/07/14 09:43:19;;;;;;;4.30;1.10;;;;;;;21.81;43.77;101133.05;107364;1285;74723;-83
2022/07/14 09:46:44;;;;;;;9.00;1.40;;;;;;;21.71;44.69;101133.92;106825;1285;70429;-84
2022/07/14 09:53:17;;;;;;;8.00;1.40;;;;;;;22.18;42.93;101116.08;107519;1283;59448;-82
2022/07/14 09:56:06;;;;;;;5.30;1.00;;;;;;;22.48;44.39;101116.13;107234;1285;60613;-83
2022/07/14 09:58:44;;;;;;;5.40;1.20;;;;;;;22.62;41.87;101117.41;107525;1283;76335;-84
2022/07/14 10:01:15;;;;;;;5.90;1.00;;;;;;;22.50;41.39;101121.02;107488;1283;71062;-83
2022/07/14 10:03:54;;;;;;;5.40;0.90;;;;;;;22.36;41.16;101119.67;107379;1283;73660;-83
2022/07/14 10:06:22;;;;;;;4.10;1.00;;;;;;;22.41;40.98;101117.52;107343;1284;60423;-83
2022/07/14 10:09:06;;;;;;;4.70;1.00;;;;;;;22.46;40.06;101115.61;107184;1283;60682;-84
2022/07/14 10:11:38;;;;;;;10.40;1.50;;;;;;;22.61;40.51;101113.61;107274;1283;75332;-81
2022/07/14 10:14:05;;;;;;;4.70;1.00;;;;;;;22.92;40.67;101108.73;107060;1284;71603;-83
2022/07/14 10:16:34;;;;;;;4.30;0.90;;;;;;;23.10;39.77;101112.33;107258;1280;73373;-82
2022/07/14 10:19:03;;;;;;;7.20;1.20;;;;;;;23.25;39.98;101110.77;107591;1281;60850;-83
2022/07/14 10:21:40;;;;;;;3.10;0.90;;;;;;;23.24;39.26;101116.42;107605;1281;60489;-83
2022/07/14 10:24:08;;;;;;;5.10;1.00;;;;;;;23.11;38.57;101110.40;107447;1281;75971;-83
2022/07/14 10:26:37;;;;;;;4.00;0.80;;;;;;;23.07;38.20;101109.27;107586;1277;69784;-83
2022/07/14 10:29:05;;;;;;;3.10;0.90;;;;;;;23.05;37.22;101107.34;108027;1277;72929;-84
2022/07/14 10:31:55;;;;;;;4.10;0.70;;;;;;;23.02;37.49;101102.04;108232;1276;60894;-82
2022/07/14 10:35:06;;;;;;;3.70;0.90;;;;;;;23.11;37.66;101099.42;107928;1276;61198;-83
2022/07/14 10:37:36;;;;;;;4.30;0.90;;;;;;;23.09;37.76;101090.98;108035;1276;74748;-83
2022/07/14 10:40:16;;;;;;;5.30;1.00;;;;;;;23.10;38.03;101086.52;108338;1276;71488;-84
2022/07/14 10:42:55;;;;;;;5.70;0.90;;;;;;;23.19;38.66;101093.79;108246;1277;73738;-81
2022/07/14 10:45:24;;;;;;;4.20;0.70;;;;;;;23.12;38.78;101095.87;108221;1276;60117;-82
2022/07/14 10:47:53;;;;;;;6.90;0.80;;;;;;;23.07;38.55;101092.77;108026;1277;61204;-83
2022/07/14 10:57:25;;;;;;;6.00;0.80;;;;;;;23.57;38.08;101080.59;106933;1280;72036;-82
2022/07/14 10:59:52;;;;;;;4.30;0.60;;;;;;;23.53;37.43;101078.10;107660;1280;60348;-82
2022/07/14 11:02:21;;;;;;;4.80;1.20;;;;;;;23.43;37.51;101076.45;107845;1280;61611;-82
2022/07/14 11:07:50;;;;;;;2.80;0.90;;;;;;;23.66;37.64;101068.89;107865;1279;72572;-80
2022/07/14 11:10:19;;;;;;;4.20;0.80;;;;;;;23.80;37.54;101063.20;107533;1279;73592;-80
2022/07/14 11:13:05;;;;;;;3.70;0.60;;;;;;;23.78;35.89;101064.64;107843;1279;63301;-79
2022/07/14 11:15:41;;;;;;;2.50;0.50;;;;;;;23.73;35.14;101068.81;107742;1281;59541;-79
2022/07/14 11:18:25;;;;;;;4.60;0.80;;;;;;;23.75;35.25;101046.95;107813;1280;74625;-80
2022/07/14 11:21:13;;;;;;;5.40;0.90;;;;;;;23.75;36.00;101052.54;107787;1281;71092;-80
2022/07/14 11:23:46;;;;;;;3.10;0.70;;;;;;;23.66;36.15;101062.05;107631;1281;73260;-81
2022/07/14 11:26:34;;;;;;;3.30;0.70;;;;;;;23.63;35.62;101061.48;107811;1280;61221;-81
2022/07/14 11:29:06;;;;;;;3.80;0.60;;;;;;;23.79;35.83;101043.80;107890;1280;61525;-81
2022/07/14 11:32:27;;;;;;;3.00;0.60;;;;;;;24.02;35.97;101044.91;107434;1283;74982;-80
2022/07/14 11:38:25;;;;;;;2.60;0.70;;;;;;;24.16;35.47;101048.23;108377;1277;72860;-80
2022/07/14 11:40:55;;;;;;;4.30;1.00;;;;;;;24.17;35.82;101043.27;107813;1277;59971;-81
2022/07/14 11:43:28;;;;;;;3.80;0.80;;;;;;;24.25;35.27;101052.06;108270;1276;60687;-79
2022/07/14 11:46:20;;;;;;;3.80;0.90;;;;;;;24.32;35.30;101049.56;108229;1276;75709;-80
2022/07/14 11:48:50;;;;;;;5.90;1.00;;;;;;;24.56;35.08;101049.90;108287;1276;71313;-80
2022/07/14 11:51:23;;;;;;;4.80;0.80;;;;;;;24.58;34.71;101054.05;108071;1277;71821;-80
2022/07/14 11:53:56;;;;;;;3.50;0.60;;;;;;;24.58;34.93;101054.09;108232;1276;60913;-80
2022/07/14 11:56:24;;;;;;;3.70;0.70;;;;;;;24.52;34.93;101054.80;108072;1277;60317;-80
2022/07/14 11:59:03;;;;;;;4.10;0.80;;;;;;;24.77;34.40;101051.18;108273;1276;76100;-80
2022/07/14 12:01:32;;;;;;;2.30;0.80;;;;;;;24.91;33.75;101045.48;108182;1277;70324;-80
2022/07/14 12:04:17;;;;;;;3.70;0.80;;;;;;;24.89;33.35;101048.28;107918;1277;72975;-80
2022/07/14 12:06:46;;;;;;;3.60;0.80;;;;;;;24.74;33.85;101047.06;108124;1276;59451;-80
2022/07/14 12:09:16;;;;;;;4.60;0.90;;;;;;;24.93;34.37;101033.49;108189;1277;60643;-80
2022/07/14 12:12:00;;;;;;;2.40;0.70;;;;;;;25.53;32.92;101030.19;108104;1277;76193;-81
2022/07/14 12:14:27;;;;;;;4.60;0.80;;;;;;;25.97;31.29;101037.23;108310;1277;71197;-80
2022/07/14 12:16:55;;;;;;;2.90;0.80;;;;;;;25.75;31.58;101027.98;108384;1276;72844;-80
2022/07/14 12:19:30;;;;;;;2.80;1.10;;;;;;;25.85;32.25;101023.81;108217;1276;60658;-80
2022/07/14 12:22:05;;;;;;;2.70;1.00;;;;;;;26.02;32.19;101020.22;108274;1277;62217;-80
2022/07/14 12:24:32;;;;;;;3.60;1.10;;;;;;;26.37;32.05;101021.27;108276;1277;75174;-81
2022/07/14 12:27:05;;;;;;;4.20;0.90;;;;;;;26.67;30.99;101029.48;108309;1276;72917;-80
2022/07/14 12:29:33;;;;;;;3.50;0.80;;;;;;;26.82;30.44;101016.10;108298;1276;72984;-81
2022/07/14 12:32:02;;;;;;;4.70;1.00;;;;;;;26.86;29.98;101030.58;108100;1277;60722;-80
2022/07/14 12:34:31;;;;;;;2.90;1.00;;;;;;;27.01;30.46;101022.15;108292;1277;59457;-80